Dades meteomassalio
Diari Summary for Marc 1, 2018 Units:  Metric    English   Both
« Previous Day
Next Day »
Diari Semanal Mensual Anual Personalitzat
  Maxima: Minima: Mijana:
Temperatura: -17.8 °C -13.7 °C -11.3 °C
Rosada: -17.8 °C -15.9 °C -13.6 °C
Humitat: Humidity % 54 % 76 %
Velocitat del vent: 0 km/h 0 km/h 19.2 km/h
Racha vent: 0 km/h - -
Vent:- - SW
Pressio: 0 hPa 33443.5 hPa -
Pluja: 0 mm    
Historical Graphs
 
 
Tabular Data for Marc 1, 2018
Time Temperature Dew Point Pressure Wind Wind Speed Wind Gust Humidity Rainfall Rate (Hourly) solar Conditions
-17.8 °C -17.8 °C 0 hPa Calm     Humidity % 0 mm SolarRadiationWatts/m^2 W/m2 Conditions
00:03 -12.9 °C -14.2 °C 33751.6 hPa Calm     86 % 0 mm 0.0 W/m2 RA
00:08 -12.9 °C -14.1 °C 33765.2 hPa Calm     87 % 0 mm 0.0 W/m2 CLR
00:13 -13 °C -14.1 °C 33765.2 hPa Calm     87 % 0 mm 0.0 W/m2 CLR
00:18 -13 °C -14.2 °C 33765.2 hPa Calm     87 % 0 mm 0.0 W/m2 CLR
00:23 -13 °C -14.2 °C 33765.2 hPa Calm     87 % 0 mm 0.0 W/m2 CLR
00:28 -13.1 °C -14.2 °C 33765.2 hPa Calm     87 % 0 mm 0.0 W/m2 CLR
00:33 -13.1 °C -14.1 °C 33765.2 hPa Calm     88 % 0 mm 0.0 W/m2 CLR
00:38 -12.9 °C -14 °C 33751.6 hPa Calm     88 % 0 mm 0.0 W/m2 CLR
00:43 -12.6 °C -13.7 °C 33751.6 hPa Calm     87 % 0 mm 0.0 W/m2 CLR
00:48 -12.3 °C -13.6 °C 33751.6 hPa Calm     86 % 0 mm 0.0 W/m2 CLR
00:53 -12.1 °C -13.5 °C 33751.6 hPa Calm     84 % 0 mm 0.0 W/m2 CLR
00:58 -11.9 °C -13.6 °C 33751.6 hPa Calm     82 % 0 mm 0.0 W/m2 CLR
01:03 -11.7 °C -13.4 °C 33751.6 hPa Calm     81 % 0 mm 0.0 W/m2 CLR
01:08 -11.6 °C -13.5 °C 33751.6 hPa Calm     79 % 0 mm 0.0 W/m2 CLR
01:13 -11.4 °C -13.4 °C 33751.6 hPa Calm     79 % 0 mm 0.0 W/m2 CLR
01:18 -11.5 °C -13.7 °C 33751.6 hPa Calm     77 % 0 mm 0.0 W/m2 CLR
01:23 -11.7 °C -13.6 °C 33751.6 hPa Calm     79 % 0 mm 0.0 W/m2 CLR
01:28 -11.7 °C -13.6 °C 33751.6 hPa Calm     80 % 0 mm 0.0 W/m2 CLR
01:33 -11.7 °C -13.7 °C 33751.6 hPa Calm     79 % 0 mm 0.0 W/m2 CLR
01:38 -11.6 °C -13.7 °C 33751.6 hPa SW 6 km/h 6 km/h 78 % 0 mm 0.0 W/m2 CLR
01:43 -11.8 °C -13.8 °C 33741.5 hPa Calm     79 % 0 mm 0.0 W/m2 CLR
01:48 -11.9 °C -13.8 °C 33751.6 hPa Calm     80 % 0 mm 0.0 W/m2 CLR
01:53 -11.9 °C -13.7 °C 33751.6 hPa ENE 10.3 km/h 10.3 km/h 80 % 0 mm 0.0 W/m2 CLR
01:58 -12.3 °C -14.1 °C 33751.6 hPa East 11.9 km/h   80 % 0 mm 0.0 W/m2 CLR
02:03 -12.4 °C -14.1 °C 33751.6 hPa Calm     82 % 0 mm 0.0 W/m2 CLR
02:08 -12.7 °C -14.1 °C 33751.6 hPa Calm     84 % 0 mm 0.0 W/m2 CLR
02:13 -12.8 °C -14.1 °C 33765.2 hPa Calm     85 % 0 mm 0.0 W/m2 CLR
02:18 -12.8 °C -14 °C 33751.6 hPa Calm     86 % 0 mm 0.0 W/m2 CLR
02:23 -12.8 °C -14.1 °C 33751.6 hPa Calm     86 % 0 mm 0.0 W/m2 CLR
02:28 -12.8 °C -14.1 °C 33751.6 hPa Calm     86 % 0 mm 0.0 W/m2 CLR
02:33 -12.9 °C -14.2 °C 33751.6 hPa Calm     86 % 0 mm 0.0 W/m2 CLR
02:38 -12.9 °C -14 °C 33751.6 hPa Calm     87 % 0 mm 0.0 W/m2 CLR
02:43 -12.7 °C -13.8 °C 33751.6 hPa NNE 9 km/h 9 km/h 87 % 0 mm 0.0 W/m2 CLR
02:48 -12.6 °C -13.8 °C 33751.6 hPa Calm     85 % 0 mm 0.0 W/m2 CLR
02:53 -12.6 °C -13.9 °C 33751.6 hPa Calm     85 % 0 mm 0.0 W/m2 CLR
02:58 -12.7 °C -14.1 °C 33751.6 hPa Calm     85 % 0 mm 0.0 W/m2 CLR
03:03 -12.8 °C -14.1 °C 33741.5 hPa Calm     85 % 0 mm 0.0 W/m2 CLR
03:08 -12.9 °C -14.2 °C 33741.5 hPa Calm     86 % 0 mm 0.0 W/m2 CLR
03:13 -12.9 °C -14.1 °C 33741.5 hPa Calm     87 % 0 mm 0.0 W/m2 CLR
03:18 -12.9 °C -14.1 °C 33751.6 hPa East 11.9 km/h 11.9 km/h 87 % 0 mm 0.0 W/m2 CLR
03:23 -13.1 °C -14.3 °C 33751.6 hPa East 9 km/h 9 km/h 87 % 0 mm 0.0 W/m2 CLR
03:28 -13.2 °C -14.2 °C 33741.5 hPa Calm     88 % 0 mm 0.0 W/m2 CLR
03:33 -13.1 °C -14.1 °C 33741.5 hPa Calm     89 % 0 mm 0.0 W/m2 CLR
03:38 -13 °C -14.1 °C 33741.5 hPa Calm     88 % 0 mm 0.0 W/m2 CLR
03:43 -12.9 °C -13.9 °C 33741.5 hPa Calm     88 % 0 mm 0.0 W/m2 CLR
03:48 -12.7 °C -13.8 °C 33741.5 hPa Calm     87 % 0 mm 0.0 W/m2 CLR
03:53 -12.7 °C -13.9 °C 33731.3 hPa Calm     86 % 0 mm 0.0 W/m2 CLR
03:58 -12.6 °C -13.8 °C 33731.3 hPa Calm     86 % 0 mm 0.0 W/m2 CLR
03:59 -12.6 °C -13.8 °C 33731.3 hPa Calm     86 % 0 mm 0.0 W/m2 CLR
04:04 -12.4 °C -13.8 °C 33741.5 hPa Calm     85 % 0 mm 0.0 W/m2 CLR
04:09 -12.5 °C -13.8 °C 33731.3 hPa Calm   1.3 km/h 85 % 0 mm 0.0 W/m2 CLR
04:14 -12.6 °C -13.8 °C 33731.3 hPa Calm     85 % 0 mm 0.0 W/m2 CLR
04:19 -12.6 °C -13.9 °C 33731.3 hPa Calm     85 % 0 mm 0.0 W/m2 CLR
04:24 -12.6 °C -13.9 °C 33731.3 hPa Calm     85 % 0 mm 0.0 W/m2 CLR
04:29 -12.6 °C -13.9 °C 33731.3 hPa Calm     85 % 0 mm 0.0 W/m2 CLR
04:34 -12.6 °C -13.9 °C 33731.3 hPa Calm     85 % 0 mm 0.0 W/m2 CLR
04:39 -12.6 °C -13.9 °C 33731.3 hPa Calm     85 % 0 mm 0.0 W/m2 CLR
04:44 -12.6 °C -13.9 °C 33731.3 hPa Calm     85 % 0 mm 0.0 W/m2 CLR
04:49 -12.6 °C -13.9 °C 33731.3 hPa South 17.9 km/h 17.9 km/h 85 % 0 mm 0.0 W/m2 CLR
04:54 -12.7 °C -14 °C 33731.3 hPa Calm     85 % 0 mm 0.0 W/m2 CLR
04:59 -12.7 °C -14.1 °C 33731.3 hPa Calm     85 % 0 mm 0.0 W/m2 CLR
05:04 -12.8 °C -14 °C 33731.3 hPa Calm     86 % 0 mm 0.0 W/m2 CLR
05:09 -12.8 °C -14 °C 33731.3 hPa Calm     86 % 0 mm 0.0 W/m2 CLR
05:14 -12.7 °C -14 °C 33731.3 hPa Calm     86 % 0 mm 0.0 W/m2 CLR
05:20 -12.7 °C -13.9 °C 33731.3 hPa SSW 7.7 km/h 7.7 km/h 86 % 0 mm 0.0 W/m2 CLR
05:25 -12.7 °C -13.9 °C 33717.8 hPa South 9 km/h 9 km/h 86 % 0 mm 0.0 W/m2 CLR
05:30 -12.6 °C -13.8 °C 33717.8 hPa South 9 km/h 9 km/h 86 % 0 mm 0.0 W/m2 CLR
05:35 -12.7 °C -13.9 °C 33717.8 hPa Calm     86 % 0 mm 0.0 W/m2 CLR
05:40 -12.7 °C -14 °C 33717.8 hPa Calm     85 % 0 mm 0.0 W/m2 CLR
05:45 -12.7 °C -14 °C 33717.8 hPa Calm     85 % 0 mm 0.0 W/m2 CLR
05:50 -12.7 °C -14.1 °C 33717.8 hPa Calm     85 % 0 mm 0.0 W/m2 CLR
05:55 -12.7 °C -14.1 °C 33717.8 hPa East 6 km/h   85 % 0 mm 0.0 W/m2 CLR
06:00 -12.8 °C -14.1 °C 33717.8 hPa Calm     86 % 0 mm 0.0 W/m2 CLR
06:05 -12.8 °C -14.1 °C 33717.8 hPa Calm     86 % 0 mm 0.0 W/m2 CLR
06:10 -12.9 °C -14.2 °C 33717.8 hPa Calm     85 % 0 mm 0.0 W/m2 CLR
06:15 -13 °C -14.3 °C 33707.6 hPa Calm     86 % 0 mm 0.0 W/m2 CLR
06:20 -13.2 °C -14.3 °C 33717.8 hPa Calm     87 % 0 mm 0.0 W/m2 CLR
06:25 -13.2 °C -14.4 °C 33717.8 hPa Calm     87 % 0 mm 0.0 W/m2 CLR
06:30 -13.3 °C -14.4 °C 33717.8 hPa Calm     88 % 0 mm 0.0 W/m2 CLR
06:35 -13.3 °C -14.3 °C 33717.8 hPa Calm     89 % 0 mm 0.0 W/m2 CLR
06:40 -13.3 °C -14.2 °C 33717.8 hPa Calm     89 % 0 mm 0.0 W/m2 CLR
06:45 -13.3 °C -14.3 °C 33717.8 hPa Calm     88 % 0 mm 0.0 W/m2 CLR
06:50 -13.3 °C -14.3 °C 33707.6 hPa Calm     88 % 0 mm 0.0 W/m2 CLR
06:55 -13.3 °C -14.3 °C 33707.6 hPa Calm     88 % 0 mm 0.0 W/m2 CLR
07:00 -13.3 °C -14.3 °C 33707.6 hPa Calm     89 % 0 mm 0.0 W/m2 CLR
07:05 -13.3 °C -14.3 °C 33707.6 hPa Calm     89 % 0 mm 0.0 W/m2 CLR
07:10 -13.3 °C -14.3 °C 33694.1 hPa Calm     89 % 0 mm 0.0 W/m2 CLR
07:15 -13.3 °C -14.3 °C 33694.1 hPa Calm     89 % 0 mm 0.0 W/m2 CLR
07:20 -13.3 °C -14.3 °C 33694.1 hPa Calm     89 % 0 mm 0.0 W/m2 CLR
07:25 -13.4 °C -14.3 °C 33694.1 hPa Calm     89 % 0 mm 0.0 W/m2 OVC
07:30 -13.4 °C -14.3 °C 33694.1 hPa Calm     89 % 0 mm 0.0 W/m2 OVC
07:35 -13.4 °C -14.4 °C 33694.1 hPa Calm     89 % 0 mm 7.0 W/m2 OVC
07:40 -13.4 °C -14.4 °C 33694.1 hPa Calm     89 % 0 mm 16.0 W/m2 BKN
07:45 -13.4 °C -14.4 °C 33694.1 hPa Calm     89 % 0 mm 26.0 W/m2 BKN
07:50 -13.5 °C -14.5 °C 33694.1 hPa Calm     89 % 0 mm 28.0 W/m2 BKN
07:55 -13.6 °C -14.6 °C 33694.1 hPa Calm     89 % 0 mm 35.0 W/m2 BKN
08:00 -13.7 °C -14.6 °C 33694.1 hPa Calm     89 % 0 mm 42.0 W/m2 BKN
08:05 -13.7 °C -14.6 °C 33694.1 hPa Calm     89 % 0 mm 42.0 W/m2 BKN
08:10 -13.6 °C -14.5 °C 33694.1 hPa Calm     90 % 0 mm 46.0 W/m2 SCT
08:15 -13.6 °C -14.4 °C 33694.1 hPa Calm     90 % 0 mm 51.0 W/m2 SCT
08:20 -13.6 °C -14.4 °C 33683.9 hPa Calm     90 % 0 mm 51.0 W/m2 SCT
08:25 -13.5 °C -14.4 °C 33683.9 hPa Calm     90 % 0 mm 51.0 W/m2 SCT
08:30 -13.4 °C -14.3 °C 33683.9 hPa NW 3.1 km/h   90 % 0 mm 53.0 W/m2 SCT
08:35 -13.4 °C -14.3 °C 33683.9 hPa Calm     90 % 0 mm 60.0 W/m2 SCT
08:40 -13.3 °C -14.1 °C 33683.9 hPa Calm     90 % 0 mm 100.0 W/m2 SCT
08:45 -13.2 °C -14.1 °C 33683.9 hPa Calm     89 % 0 mm 65.0 W/m2 FEW
08:50 -13.1 °C -14 °C 33683.9 hPa SSW 6 km/h 6 km/h 89 % 0 mm 79.0 W/m2 FEW
08:55 -12.9 °C -14 °C 33673.8 hPa ENE 7.7 km/h 7.7 km/h 88 % 0 mm 104.0 W/m2 FEW
09:00 -12.8 °C -14 °C 33673.8 hPa Calm     87 % 0 mm 141.0 W/m2 CLR
09:05 -12.6 °C -13.7 °C 33673.8 hPa Calm     87 % 0 mm 155.0 W/m2 CLR
09:10 -12.4 °C -13.7 °C 33673.8 hPa Calm     85 % 0 mm 163.0 W/m2 CLR
09:16 -12.2 °C -13.6 °C 33673.8 hPa Calm     84 % 0 mm 195.0 W/m2 CLR
09:17 -12.1 °C -13.6 °C 33673.8 hPa Calm     84 % 0 mm 206.0 W/m2 CLR
09:22 -12.1 °C -13.5 °C 33673.8 hPa Calm     84 % 0 mm 207.0 W/m2 CLR
09:27 -12.1 °C -13.5 °C 33660.2 hPa Calm     84 % 0 mm 186.0 W/m2 CLR
09:31 -12 °C -13.4 °C 33660.2 hPa Calm     84 % 0 mm 130.0 W/m2 CLR
09:36 -12 °C -13.5 °C 33660.2 hPa Calm     83 % 0 mm 98.0 W/m2 CLR
09:41 -11.9 °C -13.5 °C 33660.2 hPa Calm     83 % 0 mm 91.0 W/m2 CLR
09:46 -11.9 °C -13.5 °C 33660.2 hPa Calm     83 % 0 mm 91.0 W/m2 CLR
09:48 -11.9 °C -13.4 °C 33650.1 hPa Calm     84 % 0 mm 93.0 W/m2 CLR
09:53 -11.9 °C -13.4 °C 33650.1 hPa Calm     84 % 0 mm 97.0 W/m2 CLR
09:58 -11.9 °C -13.4 °C 33650.1 hPa Calm     84 % 0 mm 98.0 W/m2 CLR
10:03 -11.9 °C -13.3 °C 33650.1 hPa Calm     84 % 0 mm 104.0 W/m2 CLR
10:08 -11.8 °C -13.4 °C 33650.1 hPa NE 3.1 km/h   83 % 0 mm 109.0 W/m2 CLR
10:13 -11.8 °C -13.4 °C 33650.1 hPa Calm     83 % 0 mm 114.0 W/m2 CLR
10:18 -11.8 °C -13.2 °C 33650.1 hPa Calm     84 % 0 mm 125.0 W/m2 CLR
10:21 -11.7 °C -13.2 °C 33650.1 hPa Calm     84 % 0 mm 132.0 W/m2 CLR
10:26 -11.7 °C -13.1 °C 33650.1 hPa Calm     84 % 0 mm 146.0 W/m2 CLR
10:31 -11.6 °C -13.2 °C 33650.1 hPa Calm     83 % 0 mm 171.0 W/m2 CLR
10:36 -11.5 °C -13.1 °C 33639.9 hPa Calm     83 % 0 mm 243.0 W/m2 CLR
10:39 -11.4 °C -12.9 °C 33650.1 hPa ENE 9 km/h 9 km/h 83 % 0 mm 262.0 W/m2 CLR
10:41 -11.3 °C -12.9 °C 33650.1 hPa ENE 6 km/h   83 % 0 mm 265.0 W/m2 CLR
10:46 -11.2 °C -12.9 °C 33650.1 hPa Calm     82 % 0 mm 272.0 W/m2 CLR
10:51 -11.1 °C -12.7 °C 33639.9 hPa Calm     82 % 0 mm 462.0 W/m2 CLR
10:56 -10.9 °C -12.6 °C 33639.9 hPa Calm     82 % 0 mm 401.0 W/m2 CLR
11:01 -10.6 °C -12.5 °C 33626.4 hPa Calm     80 % 0 mm 308.0 W/m2 CLR
11:06 -10.4 °C -12.4 °C 33626.4 hPa SSE 9 km/h 9 km/h 78 % 0 mm 459.0 W/m2 CLR
11:11 -9.9 °C -12.5 °C 33626.4 hPa ESE 15 km/h 15 km/h 74 % 0 mm 512.0 W/m2 CLR
11:16 -9.7 °C -12.4 °C 33616.2 hPa South 23.8 km/h 23.8 km/h 72 % 0 mm 320.0 W/m2 CLR
11:21 -9.5 °C -12.5 °C 33616.2 hPa ESE 23.8 km/h 23.8 km/h 70 % 0 mm 308.0 W/m2 CLR
11:26 -9.4 °C -12.6 °C 33616.2 hPa ESE 20.9 km/h 20.9 km/h 69 % 0 mm 399.0 W/m2 CLR
11:31 -9.3 °C -12.4 °C 33616.2 hPa SSW 26.9 km/h 26.9 km/h 69 % 0 mm 309.0 W/m2 CLR
11:36 -9.3 °C -12.7 °C 33616.2 hPa SSW 29.8 km/h 29.8 km/h 67 % 0 mm 244.0 W/m2 CLR
11:41 -9.4 °C -12.7 °C 33616.2 hPa SSE 26.9 km/h 26.9 km/h 68 % 0 mm 287.0 W/m2 CLR
11:46 -9.4 °C -12.4 °C 33602.7 hPa SSE 20.9 km/h 20.9 km/h 70 % 0 mm 320.0 W/m2 CLR
11:51 -9.3 °C -12.3 °C 33602.7 hPa ESE 15.6 km/h 15.6 km/h 71 % 0 mm 388.0 W/m2 CLR
11:56 -9.1 °C -13.1 °C 33592.5 hPa SW 44.7 km/h 44.7 km/h 62 % 0 mm 485.0 W/m2 CLR
12:01 -8.5 °C -12.8 °C 33592.5 hPa WSW 47.6 km/h 47.6 km/h 60 % 0 mm 729.0 W/m2 CLR
12:06 -8.3 °C -13.1 °C 33592.5 hPa ESE 41.7 km/h 41.7 km/h 57 % 0 mm 446.0 W/m2 CLR
12:11 -8.1 °C -13.2 °C 33582.3 hPa West 44.7 km/h 44.7 km/h 55 % 0 mm 705.0 W/m2 CLR
12:16 -8 °C -12.9 °C 33582.3 hPa ESE 26.9 km/h 26.9 km/h 56 % 0 mm 635.0 W/m2 CLR
12:21 -8.2 °C -12.9 °C 33582.3 hPa ESE 20.9 km/h 20.9 km/h 57 % 0 mm 253.0 W/m2 CLR
12:26 -8.5 °C -12.4 °C 33582.3 hPa ESE 28.5 km/h 28.5 km/h 63 % 0 mm 230.0 W/m2 CLR
12:31 -9.1 °C -12.6 °C 33582.3 hPa SSW 26.9 km/h 26.9 km/h 66 % 0 mm 258.0 W/m2 CLR
12:36 -9.2 °C -12.5 °C 33582.3 hPa South 23.8 km/h 23.8 km/h 68 % 0 mm 227.0 W/m2 CLR
12:41 -9.4 °C -12.4 °C 33582.3 hPa ESE 29.8 km/h 29.8 km/h 70 % 0 mm 244.0 W/m2 CLR
12:46 -9.8 °C -12.6 °C 33582.3 hPa South 29.8 km/h 29.8 km/h 72 % 0 mm 223.0 W/m2 CLR
12:51 -9.9 °C -12.6 °C 33582.3 hPa ESE 20.9 km/h 20.9 km/h 73 % 0 mm 185.0 W/m2 CLR
12:56 -10.1 °C -12.6 °C 33582.3 hPa SSE 23.8 km/h 23.8 km/h 74 % 0 mm 179.0 W/m2 CLR
13:01 -10.2 °C -12.6 °C 33582.3 hPa ESE 23.8 km/h 23.8 km/h 75 % 0 mm 174.0 W/m2 CLR
13:06 -10.3 °C -12.7 °C 33582.3 hPa SW 29.8 km/h 29.8 km/h 75 % 0 mm 162.0 W/m2 CLR
13:11 -10.4 °C -12.8 °C 33582.3 hPa SW 29.8 km/h 29.8 km/h 75 % 0 mm 141.0 W/m2 CLR
13:16 -10.6 °C -12.9 °C 33582.3 hPa ESE 32.8 km/h 32.8 km/h 76 % 0 mm 120.0 W/m2 CLR
13:22 -10.8 °C -12.8 °C 33568.8 hPa South 20.9 km/h 20.9 km/h 78 % 0 mm 102.0 W/m2 CLR
13:27 -10.9 °C -12.9 °C 33568.8 hPa South 29.8 km/h 29.8 km/h 78 % 0 mm 114.0 W/m2 CLR
13:32 -10.8 °C -12.9 °C 33558.6 hPa South 11.9 km/h 11.9 km/h 78 % 0 mm 107.0 W/m2 CLR
13:37 -10.7 °C -12.8 °C 33558.6 hPa SSE 9 km/h 9 km/h 78 % 0 mm 97.0 W/m2 CLR
13:42 -10.6 °C -12.9 °C 33558.6 hPa WSW 28.5 km/h 28.5 km/h 75 % 0 mm 91.0 W/m2 CLR
13:47 -9.6 °C -13.2 °C 33558.6 hPa SW 38.8 km/h 38.8 km/h 65 % 0 mm 97.0 W/m2 CLR
13:52 -9.1 °C -13.2 °C 33545.1 hPa ESE 41.7 km/h 41.7 km/h 62 % 0 mm 100.0 W/m2 CLR
13:57 -9.9 °C -12.9 °C 33545.1 hPa ESE 20.9 km/h 20.9 km/h 70 % 0 mm 91.0 W/m2 CLR
14:02 -10.3 °C -12.9 °C 33545.1 hPa SSE 23.8 km/h 23.8 km/h 73 % 0 mm 104.0 W/m2 CLR
14:07 -10.7 °C -12.9 °C 33545.1 hPa ESE 32.8 km/h 32.8 km/h 76 % 0 mm 130.0 W/m2 CLR
14:12 -10.8 °C -13 °C 33545.1 hPa ESE 31.1 km/h 31.1 km/h 77 % 0 mm 151.0 W/m2 CLR
14:17 -10.8 °C -13 °C 33545.1 hPa ESE 29.8 km/h 29.8 km/h 77 % 0 mm 137.0 W/m2 CLR
14:22 -10.8 °C -13.1 °C 33534.9 hPa SW 23.8 km/h 23.8 km/h 76 % 0 mm 123.0 W/m2 CLR
14:27 -10.5 °C -13.1 °C 33534.9 hPa ESE 15 km/h 15 km/h 74 % 0 mm 121.0 W/m2 CLR
14:32 -10.6 °C -13.1 °C 33534.9 hPa ESE 32.8 km/h 32.8 km/h 74 % 0 mm 128.0 W/m2 CLR
14:37 -11 °C -13.2 °C 33534.9 hPa ESE 20.9 km/h 20.9 km/h 77 % 0 mm 178.0 W/m2 CLR
14:42 -11.2 °C -13.2 °C 33534.9 hPa ESE 29.8 km/h 29.8 km/h 79 % 0 mm 243.0 W/m2 CLR
14:47 -11.3 °C -13.2 °C 33534.9 hPa ESE 23.8 km/h 23.8 km/h 80 % 0 mm 267.0 W/m2 CLR
14:52 -11.2 °C -13.1 °C 33524.8 hPa ESE 23.8 km/h 23.8 km/h 80 % 0 mm 264.0 W/m2 CLR
14:57 -11.2 °C -13 °C 33524.8 hPa SSW 20.9 km/h 20.9 km/h 80 % 0 mm 276.0 W/m2 CLR
15:02 -10.9 °C -12.9 °C 33524.8 hPa SSW 26.9 km/h 26.9 km/h 79 % 0 mm 276.0 W/m2 CLR
15:07 -10.7 °C -12.8 °C 33511.2 hPa ESE 15 km/h 15 km/h 78 % 0 mm 248.0 W/m2 CLR
15:12 -10.6 °C -12.6 °C 33511.2 hPa ESE 9 km/h 9 km/h 78 % 0 mm 239.0 W/m2 CLR
15:17 -10.3 °C -12.7 °C 33511.2 hPa ESE 44.7 km/h 44.7 km/h 75 % 0 mm 250.0 W/m2 CLR
15:22 -10.3 °C -12.8 °C 33511.2 hPa ESE 29.8 km/h 29.8 km/h 74 % 0 mm 207.0 W/m2 CLR
15:27 -10.4 °C -12.7 °C 33511.2 hPa ENE 26.9 km/h 26.9 km/h 76 % 0 mm 171.0 W/m2 CLR
15:32 -10.3 °C -12.6 °C 33501.1 hPa North 29.8 km/h 29.8 km/h 76 % 0 mm 158.0 W/m2 CLR
15:37 -9.9 °C -12.6 °C 33490.9 hPa West 23.8 km/h 23.8 km/h 73 % 0 mm 165.0 W/m2 CLR
15:42 -9.4 °C -12.6 °C 33490.9 hPa WSW 9 km/h 9 km/h 69 % 0 mm 176.0 W/m2 CLR
15:47 -9.1 °C -12.7 °C 33501.1 hPa WSW 32.8 km/h 32.8 km/h 66 % 0 mm 197.0 W/m2 CLR
15:52 -9 °C -12.8 °C 33490.9 hPa SW 50.7 km/h 50.7 km/h 64 % 0 mm 244.0 W/m2 CLR
15:57 -9 °C -12.8 °C 33477.4 hPa WSW 53.6 km/h 53.6 km/h 64 % 0 mm 229.0 W/m2 CLR
16:02 -9 °C -12.6 °C 33490.9 hPa ESE 23.8 km/h 23.8 km/h 66 % 0 mm 178.0 W/m2 CLR
16:07 -9.1 °C -12.6 °C 33477.4 hPa SW 29.8 km/h 29.8 km/h 66 % 0 mm 174.0 W/m2 CLR
16:12 -9.1 °C -12.7 °C 33490.9 hPa West 17.9 km/h 17.9 km/h 66 % 0 mm 142.0 W/m2 CLR
16:17 -9.2 °C -12.6 °C 33490.9 hPa SW 31.1 km/h 31.1 km/h 67 % 0 mm 132.0 W/m2 CLR
16:22 -9.3 °C -12.7 °C 33490.9 hPa SW 41.7 km/h 41.7 km/h 67 % 0 mm 104.0 W/m2 CLR
16:27 -9.5 °C -12.7 °C 33477.4 hPa SSW 41.4 km/h 41.4 km/h 68 % 0 mm 111.0 W/m2 CLR
16:32 -9.6 °C -12.7 °C 33477.4 hPa WSW 38.8 km/h 38.8 km/h 69 % 0 mm 146.0 W/m2 CLR
16:37 -9.6 °C -12.7 °C 33467.2 hPa SW 38.8 km/h 38.8 km/h 69 % 0 mm 142.0 W/m2 CLR
16:42 -9.7 °C -12.8 °C 33477.4 hPa WSW 38.8 km/h 38.8 km/h 69 % 0 mm 127.0 W/m2 CLR
16:47 -9.7 °C -12.8 °C 33477.4 hPa WSW 38.8 km/h 38.8 km/h 69 % 0 mm 141.0 W/m2 CLR
16:52 -9.7 °C -12.8 °C 33477.4 hPa WSW 32.8 km/h 32.8 km/h 69 % 0 mm 141.0 W/m2 CLR
16:57 -9.7 °C -12.8 °C 33467.2 hPa SW 50.7 km/h 50.7 km/h 69 % 0 mm 132.0 W/m2 CLR
17:02 -9.7 °C -12.8 °C 33467.2 hPa WSW 44.1 km/h 44.1 km/h 69 % 0 mm 128.0 W/m2 CLR
17:07 -9.8 °C -12.9 °C 33467.2 hPa WSW 51.8 km/h 51.8 km/h 69 % 0 mm 107.0 W/m2 CLR
17:12 -9.8 °C -12.9 °C 33467.2 hPa SW 44.7 km/h 44.7 km/h 69 % 0 mm 104.0 W/m2 CLR
17:17 -9.9 °C -13 °C 33467.2 hPa WSW 44.7 km/h 44.7 km/h 69 % 0 mm 95.0 W/m2 CLR
17:22 -9.9 °C -12.9 °C 33453.7 hPa West 56.6 km/h 56.6 km/h 70 % 0 mm 83.0 W/m2 CLR
17:27 -9.9 °C -12.9 °C 33453.7 hPa WSW 57 km/h 57 km/h 70 % 0 mm 67.0 W/m2 FEW
17:32 -10 °C -13 °C 33453.7 hPa ESE 71.5 km/h 71.5 km/h 70 % 0 mm 58.0 W/m2 FEW
17:37 -10.1 °C -13 °C 33453.7 hPa WSW 47.6 km/h 47.6 km/h 70 % 0 mm 44.0 W/m2 SCT
17:42 -10.1 °C -13 °C 33453.7 hPa WSW 53.6 km/h 53.6 km/h 70 % 0 mm 33.0 W/m2 SCT
17:47 -10.1 °C -13 °C 33453.7 hPa SW 53.6 km/h 53.6 km/h 70 % 0 mm 32.0 W/m2 BKN
17:52 -10.1 °C -13 °C 33443.5 hPa SW 38.8 km/h 38.8 km/h 71 % 0 mm 83.0 W/m2 SCT
17:57 -10.2 °C -13.1 °C 33443.5 hPa West 53.6 km/h 53.6 km/h 71 % 0 mm 42.0 W/m2 SCT
18:02 -10.2 °C -12.9 °C 33443.5 hPa WSW 38.8 km/h 38.8 km/h 72 % 0 mm 37.0 W/m2 BKN
18:07 -10.2 °C -13 °C 33443.5 hPa SW 44.1 km/h 44.1 km/h 72 % 0 mm 35.0 W/m2 BKN
18:12 -10.2 °C -13.1 °C 33443.5 hPa West 53.6 km/h 53.6 km/h 71 % 0 mm 35.0 W/m2 BKN
18:17 -10.2 °C -13.1 °C 33453.7 hPa WSW 35.7 km/h 35.7 km/h 71 % 0 mm 39.0 W/m2 BKN
18:22 -10.2 °C -13 °C 33453.7 hPa WSW 50.7 km/h 50.7 km/h 71 % 0 mm 37.0 W/m2 BKN
18:27 -10.1 °C -12.9 °C 33453.7 hPa WSW 38.8 km/h 38.8 km/h 71 % 0 mm 26.0 W/m2 BKN
18:32 -10.1 °C -12.9 °C 33453.7 hPa WSW 44.7 km/h 44.7 km/h 71 % 0 mm 14.0 W/m2 BKN
18:37 -10.1 °C -12.9 °C 33453.7 hPa WSW 31.1 km/h 31.1 km/h 71 % 0 mm 14.0 W/m2 BKN
18:42 -10.1 °C -13 °C 33453.7 hPa WSW 29.8 km/h 29.8 km/h 70 % 0 mm 11.0 W/m2 BKN
18:47 -10.1 °C -13 °C 33467.2 hPa WSW 32.8 km/h 32.8 km/h 70 % 0 mm 0.0 W/m2 OVC
18:52 -10.1 °C -13 °C 33467.2 hPa WSW 32.8 km/h 32.8 km/h 70 % 0 mm 0.0 W/m2 OVC
18:57 -10 °C -13 °C 33467.2 hPa WSW 38.8 km/h 38.8 km/h 70 % 0 mm 0.0 W/m2 OVC
19:02 -10 °C -13 °C 33467.2 hPa WSW 29.8 km/h 29.8 km/h 70 % 0 mm 0.0 W/m2 CLR
19:07 -10 °C -13 °C 33467.2 hPa WSW 32.8 km/h 32.8 km/h 70 % 0 mm 0.0 W/m2 CLR
19:12 -9.9 °C -13.1 °C 33467.2 hPa West 44.7 km/h 44.7 km/h 69 % 0 mm 0.0 W/m2 CLR
19:17 -9.9 °C -12.9 °C 33467.2 hPa WSW 35.7 km/h 35.7 km/h 70 % 0 mm 0.0 W/m2 CLR
19:22 -9.9 °C -12.9 °C 33467.2 hPa WSW 41.7 km/h 41.7 km/h 70 % 0 mm 0.0 W/m2 CLR
19:27 -9.9 °C -12.9 °C 33467.2 hPa SW 50.7 km/h 50.7 km/h 70 % 0 mm 0.0 W/m2 CLR
19:32 -9.9 °C -13 °C 33467.2 hPa WSW 50.7 km/h 50.7 km/h 69 % 0 mm 0.0 W/m2 CLR
19:37 -9.9 °C -13 °C 33467.2 hPa SW 46.7 km/h 46.7 km/h 69 % 0 mm 0.0 W/m2 CLR
19:42 -9.9 °C -13.1 °C 33467.2 hPa ESE 29.8 km/h 29.8 km/h 69 % 0 mm 0.0 W/m2 CLR
19:47 -10.1 °C -13 °C 33453.7 hPa SW 32.8 km/h 32.8 km/h 70 % 0 mm 0.0 W/m2 CLR
19:52 -10.1 °C -13 °C 33467.2 hPa SW 32.8 km/h 32.8 km/h 70 % 0 mm 0.0 W/m2 CLR
19:57 -10.1 °C -13.1 °C 33467.2 hPa WSW 32.8 km/h 32.8 km/h 70 % 0 mm 0.0 W/m2 CLR
20:02 -10.2 °C -13.1 °C 33467.2 hPa WSW 23.8 km/h 23.8 km/h 71 % 0 mm 0.0 W/m2 CLR
20:07 -10.2 °C -13.1 °C 33467.2 hPa WSW 26.9 km/h 26.9 km/h 71 % 0 mm 0.0 W/m2 CLR
20:12 -10.2 °C -12.9 °C 33443.5 hPa ESE 29.8 km/h 29.8 km/h 72 % 0 mm 0.0 W/m2 CLR
20:17 -10.3 °C -13.1 °C 33443.5 hPa WSW 23.3 km/h 23.3 km/h 72 % 0 mm 0.0 W/m2 CLR
20:22 -10.3 °C -13.2 °C 33443.5 hPa WSW 29.8 km/h 29.8 km/h 71 % 0 mm 0.0 W/m2 CLR
20:27 -10.2 °C -13.1 °C 33443.5 hPa WSW 20.9 km/h 20.9 km/h 71 % 0 mm 0.0 W/m2 CLR
20:33 -10.3 °C -13.2 °C 33443.5 hPa WSW 6 km/h   71 % 0 mm 0.0 W/m2 CLR
20:38 -10.3 °C -13.2 °C 33453.7 hPa Calm     71 % 0 mm 0.0 W/m2 CLR
20:43 -10.4 °C -13.2 °C 33453.7 hPa Calm     72 % 0 mm 0.0 W/m2 CLR
20:48 -10.4 °C -13.2 °C 33453.7 hPa WNW 11.9 km/h 11.9 km/h 71 % 0 mm 0.0 W/m2 CLR
20:53 -10.3 °C -13.3 °C 33467.2 hPa West 17.9 km/h 17.9 km/h 70 % 0 mm 0.0 W/m2 CLR
20:58 -10.3 °C -13.3 °C 33467.2 hPa West 9 km/h 9 km/h 70 % 0 mm 0.0 W/m2 CLR
21:03 -10.3 °C -13.3 °C 33477.4 hPa Calm     70 % 0 mm 0.0 W/m2 CLR
21:08 -10.3 °C -13.4 °C 33490.9 hPa NW 29.8 km/h 29.8 km/h 69 % 0 mm 0.0 W/m2 CLR
21:13 -10.2 °C -13.3 °C 33501.1 hPa NW 51.8 km/h 51.8 km/h 69 % 0 mm 0.0 W/m2 CLR
21:18 -10.1 °C -13.5 °C 33501.1 hPa NW 65.5 km/h 65.5 km/h 66 % 0 mm 0.0 W/m2 CLR
21:23 -9.9 °C -13.6 °C 33501.1 hPa WNW 32.8 km/h 32.8 km/h 65 % 0 mm 0.0 W/m2 CLR
21:28 -10.1 °C -13.6 °C 33501.1 hPa WNW 23.8 km/h 23.8 km/h 66 % 0 mm 0.0 W/m2 CLR
21:33 -10.2 °C -13.6 °C 33501.1 hPa NW 26.9 km/h 26.9 km/h 66 % 0 mm 0.0 W/m2 CLR
21:38 -10.2 °C -13.7 °C 33501.1 hPa NW 26.9 km/h 26.9 km/h 65 % 0 mm 0.0 W/m2 CLR
21:43 -10.2 °C -13.9 °C 33511.2 hPa NW 23.8 km/h 23.8 km/h 64 % 0 mm 0.0 W/m2 CLR
21:48 -10.2 °C -14 °C 33511.2 hPa NW 35.7 km/h 35.7 km/h 63 % 0 mm 0.0 W/m2 CLR
21:53 -10.2 °C -14.1 °C 33534.9 hPa NNW 35.7 km/h 35.7 km/h 62 % 0 mm 0.0 W/m2 CLR
21:58 -10.2 °C -14.3 °C 33534.9 hPa NNW 44.7 km/h 44.7 km/h 61 % 0 mm 0.0 W/m2 CLR
22:03 -10.3 °C -14.4 °C 33545.1 hPa NW 59.5 km/h 59.5 km/h 61 % 0 mm 0.0 W/m2 CLR
22:08 -10.2 °C -14.7 °C 33545.1 hPa NW 53.6 km/h 53.6 km/h 58 % 0 mm 0.0 W/m2 CLR
22:13 -10.1 °C -14.8 °C 33558.6 hPa WNW 53.6 km/h 53.6 km/h 57 % 0 mm 0.0 W/m2 CLR
22:18 -10.2 °C -14.8 °C 33558.6 hPa NW 50.7 km/h 50.7 km/h 57 % 0 mm 0.0 W/m2 CLR
22:23 -10.2 °C -14.9 °C 33558.6 hPa NW 47.6 km/h 47.6 km/h 56 % 0 mm 0.0 W/m2 CLR
22:28 -10.2 °C -15.1 °C 33558.6 hPa NW 47.6 km/h 47.6 km/h 55 % 0 mm 0.0 W/m2 CLR
22:33 -10.2 °C -15.1 °C 33568.8 hPa WNW 32.8 km/h 32.8 km/h 56 % 0 mm 0.0 W/m2 CLR
22:38 -10.2 °C -15.2 °C 33568.8 hPa WNW 38.8 km/h 38.8 km/h 55 % 0 mm 0.0 W/m2 CLR
22:43 -10.3 °C -15.3 °C 33568.8 hPa NW 47.6 km/h 47.6 km/h 54 % 0 mm 0.0 W/m2 CLR
22:48 -10.3 °C -15.4 °C 33582.3 hPa WNW 38.8 km/h 38.8 km/h 54 % 0 mm 0.0 W/m2 CLR
22:53 -10.3 °C -15.2 °C 33582.3 hPa NW 29.8 km/h 29.8 km/h 55 % 0 mm 0.0 W/m2 CLR
22:58 -10.4 °C -15.3 °C 33592.5 hPa NW 59.5 km/h 59.5 km/h 55 % 0 mm 0.0 W/m2 CLR
23:03 -10.4 °C -15.3 °C 33602.7 hPa NNW 110.2 km/h 110.2 km/h 55 % 0 mm 0.0 W/m2 CLR
23:08 -10.5 °C -15.3 °C 33616.2 hPa NNW 65.5 km/h 65.5 km/h 56 % 0 mm 0.0 W/m2 CLR
23:13 -10.7 °C -15.4 °C 33626.4 hPa NW 62.6 km/h 62.6 km/h 56 % 0 mm 0.0 W/m2 CLR
23:18 -10.8 °C -15.4 °C 33626.4 hPa NW 65.5 km/h 65.5 km/h 57 % 0 mm 0.0 W/m2 CLR
23:23 -10.8 °C -15.4 °C 33639.9 hPa NW 59.5 km/h 59.5 km/h 57 % 0 mm 0.0 W/m2 CLR
23:28 -10.9 °C -15.6 °C 33639.9 hPa WNW 68.6 km/h 68.6 km/h 57 % 0 mm 0.0 W/m2 CLR
23:33 -11 °C -15.7 °C 33650.1 hPa WNW 59.5 km/h 59.5 km/h 56 % 0 mm 0.0 W/m2 CLR
23:38 -11.1 °C -15.7 °C 33650.1 hPa WNW 50.7 km/h 50.7 km/h 57 % 0 mm 0.0 W/m2 CLR
23:43 -11.2 °C -15.8 °C 33650.1 hPa WNW 44.7 km/h 44.7 km/h 57 % 0 mm 0.0 W/m2 CLR
23:48 -11.3 °C -15.8 °C 33650.1 hPa WNW 41.7 km/h 41.7 km/h 57 % 0 mm 0.0 W/m2 CLR
23:53 -11.3 °C -15.7 °C 33660.2 hPa NW 32.8 km/h 32.8 km/h 58 % 0 mm 0.0 W/m2 CLR
23:58 -11.4 °C -15.9 °C 33660.2 hPa WNW 35.7 km/h 35.7 km/h 58 % 0 mm 0.0 W/m2 CLR
Lo Temps de Massalio
Compliments of Weather Underground - 1.25 mb